Coal Grove, Ohio
Current Conditions -  °F | °C
As of 1:51 PM on Tuesday 27 Jan 2015 (Local Time) from KHTS Reporting Station
Overcast Overcast  
Wind Chill: 25°   Ceiling: 12000
Heat Index: 25°   Visibility: 10mi
Dew Point: 15°   Wind: 3mph
Humidity: 66%   Direction: 360°N
Pressure: 30.03"   Gusts: NA
Location:  38.545°N, 82.6629°W
Report Text: KHTS 271851Z 36003KT 10SM SCT026 OVC120 M04/M09 A3003 RMK AO2 SLP178 T10391094
Loading
Personal Weather Stations






























Interactive Weather Map New forecast layout! Learn more

10-Day Weather Forecast

Advertisements
Track Severe Weather on mobile